sensor_id;sensor_type;location;lat;lon;timestamp;P1;durP1;ratioP1;P2;durP2;ratioP2
56997;SDS011;42890;44.244;22.530;2022-12-07T00:03:42;109.25;;;74.13;;
56997;SDS011;42890;44.244;22.530;2022-12-07T00:06:09;104.38;;;71.43;;
56997;SDS011;42890;44.244;22.530;2022-12-07T00:08:36;77.93;;;63.00;;
56997;SDS011;42890;44.244;22.530;2022-12-07T00:11:09;226.57;;;51.78;;
56997;SDS011;42890;44.244;22.530;2022-12-07T00:13:36;345.15;;;43.47;;
56997;SDS011;42890;44.244;22.530;2022-12-07T00:16:06;200.90;;;38.22;;
56997;SDS011;42890;44.244;22.530;2022-12-07T00:18:33;224.10;;;92.30;;
56997;SDS011;42890;44.244;22.530;2022-12-07T00:21:00;236.82;;;113.55;;
56997;SDS011;42890;44.244;22.530;2022-12-07T00:23:26;79.20;;;61.88;;
56997;SDS011;42890;44.244;22.530;2022-12-07T00:25:52;57.40;;;49.03;;
56997;SDS011;42890;44.244;22.530;2022-12-07T00:28:18;61.38;;;49.90;;
56997;SDS011;42890;44.244;22.530;2022-12-07T00:30:44;59.72;;;53.60;;
56997;SDS011;42890;44.244;22.530;2022-12-07T00:33:10;132.82;;;86.07;;
56997;SDS011;42890;44.244;22.530;2022-12-07T00:35:37;160.52;;;90.85;;
56997;SDS011;42890;44.244;22.530;2022-12-07T00:38:03;130.73;;;82.20;;
56997;SDS011;42890;44.244;22.530;2022-12-07T00:40:29;142.23;;;84.97;;
56997;SDS011;42890;44.244;22.530;2022-12-07T00:42:55;118.78;;;77.03;;
56997;SDS011;42890;44.244;22.530;2022-12-07T00:45:21;57.90;;;44.92;;
56997;SDS011;42890;44.244;22.530;2022-12-07T00:47:47;45.78;;;39.80;;
56997;SDS011;42890;44.244;22.530;2022-12-07T00:50:13;53.03;;;43.38;;
56997;SDS011;42890;44.244;22.530;2022-12-07T00:52:39;59.78;;;49.83;;
56997;SDS011;42890;44.244;22.530;2022-12-07T00:55:06;57.75;;;49.28;;
56997;SDS011;42890;44.244;22.530;2022-12-07T00:57:32;64.22;;;56.75;;
56997;SDS011;42890;44.244;22.530;2022-12-07T00:59:58;72.18;;;62.13;;
56997;SDS011;42890;44.244;22.530;2022-12-07T01:02:25;124.47;;;87.90;;
56997;SDS011;42890;44.244;22.530;2022-12-07T01:04:51;86.38;;;75.05;;
56997;SDS011;42890;44.244;22.530;2022-12-07T01:07:17;78.07;;;64.32;;
56997;SDS011;42890;44.244;22.530;2022-12-07T01:09:43;104.75;;;70.63;;
56997;SDS011;42890;44.244;22.530;2022-12-07T01:12:10;202.88;;;107.88;;
56997;SDS011;42890;44.244;22.530;2022-12-07T01:14:36;76.10;;;51.80;;
56997;SDS011;42890;44.244;22.530;2022-12-07T01:17:02;32.22;;;26.17;;
56997;SDS011;42890;44.244;22.530;2022-12-07T01:19:28;112.00;;;68.38;;
56997;SDS011;42890;44.244;22.530;2022-12-07T01:21:54;174.70;;;92.03;;
56997;SDS011;42890;44.244;22.530;2022-12-07T01:24:20;118.68;;;74.70;;
56997;SDS011;42890;44.244;22.530;2022-12-07T01:26:48;69.95;;;33.00;;
56997;SDS011;42890;44.244;22.530;2022-12-07T01:29:14;157.63;;;47.33;;
56997;SDS011;42890;44.244;22.530;2022-12-07T01:31:41;478.00;;;93.80;;
56997;SDS011;42890;44.244;22.530;2022-12-07T01:34:07;292.92;;;81.60;;
56997;SDS011;42890;44.244;22.530;2022-12-07T01:36:35;407.08;;;115.75;;
56997;SDS011;42890;44.244;22.530;2022-12-07T01:39:03;441.70;;;69.93;;
56997;SDS011;42890;44.244;22.530;2022-12-07T01:41:31;402.83;;;32.65;;
56997;SDS011;42890;44.244;22.530;2022-12-07T01:46:36;312.58;;;39.83;;
56997;SDS011;42890;44.244;22.530;2022-12-07T01:49:03;72.90;;;29.38;;
56997;SDS011;42890;44.244;22.530;2022-12-07T01:51:30;99.68;;;22.17;;
56997;SDS011;42890;44.244;22.530;2022-12-07T01:53:56;55.17;;;19.25;;
56997;SDS011;42890;44.244;22.530;2022-12-07T01:56:23;81.28;;;21.80;;
56997;SDS011;42890;44.244;22.530;2022-12-07T01:58:50;97.78;;;32.97;;
56997;SDS011;42890;44.244;22.530;2022-12-07T02:01:17;80.70;;;39.78;;
56997;SDS011;42890;44.244;22.530;2022-12-07T02:03:43;44.30;;;31.88;;
56997;SDS011;42890;44.244;22.530;2022-12-07T02:06:11;95.60;;;51.80;;
56997;SDS011;42890;44.244;22.530;2022-12-07T02:08:37;51.20;;;33.13;;
56997;SDS011;42890;44.244;22.530;2022-12-07T02:11:04;161.70;;;67.75;;
56997;SDS011;42890;44.244;22.530;2022-12-07T02:13:32;550.92;;;206.40;;
56997;SDS011;42890;44.244;22.530;2022-12-07T02:26:47;53.17;;;42.38;;
56997;SDS011;42890;44.244;22.530;2022-12-07T02:32:05;184.95;;;51.55;;
56997;SDS011;42890;44.244;22.530;2022-12-07T02:39:51;280.73;;;91.30;;
56997;SDS011;42890;44.244;22.530;2022-12-07T02:42:21;304.40;;;86.97;;
56997;SDS011;42890;44.244;22.530;2022-12-07T02:44:50;199.02;;;81.07;;
56997;SDS011;42890;44.244;22.530;2022-12-07T02:47:16;437.45;;;107.43;;
56997;SDS011;42890;44.244;22.530;2022-12-07T02:49:43;341.20;;;123.30;;
56997;SDS011;42890;44.244;22.530;2022-12-07T02:52:09;270.17;;;83.28;;
56997;SDS011;42890;44.244;22.530;2022-12-07T02:54:35;346.08;;;90.47;;
56997;SDS011;42890;44.244;22.530;2022-12-07T02:57:21;128.60;;;51.70;;
56997;SDS011;42890;44.244;22.530;2022-12-07T03:07:39;211.38;;;42.85;;
56997;SDS011;42890;44.244;22.530;2022-12-07T03:10:24;182.65;;;42.05;;
56997;SDS011;42890;44.244;22.530;2022-12-07T03:13:12;105.30;;;34.45;;
56997;SDS011;42890;44.244;22.530;2022-12-07T03:18:11;136.45;;;35.83;;
56997;SDS011;42890;44.244;22.530;2022-12-07T03:20:39;70.25;;;34.83;;
56997;SDS011;42890;44.244;22.530;2022-12-07T03:23:05;46.67;;;33.03;;
56997;SDS011;42890;44.244;22.530;2022-12-07T03:25:35;51.38;;;33.30;;
56997;SDS011;42890;44.244;22.530;2022-12-07T03:28:05;45.13;;;31.77;;
56997;SDS011;42890;44.244;22.530;2022-12-07T03:30:37;30.33;;;26.02;;
56997;SDS011;42890;44.244;22.530;2022-12-07T03:33:10;26.77;;;23.83;;
56997;SDS011;42890;44.244;22.530;2022-12-07T03:35:42;15.48;;;13.85;;
56997;SDS011;42890;44.244;22.530;2022-12-07T03:38:17;12.85;;;11.02;;
56997;SDS011;42890;44.244;22.530;2022-12-07T03:40:54;13.88;;;12.48;;
56997;SDS011;42890;44.244;22.530;2022-12-07T03:43:21;13.50;;;12.20;;
56997;SDS011;42890;44.244;22.530;2022-12-07T03:45:59;10.55;;;9.55;;
56997;SDS011;42890;44.244;22.530;2022-12-07T03:48:32;11.13;;;9.85;;
56997;SDS011;42890;44.244;22.530;2022-12-07T03:51:09;11.00;;;10.00;;
56997;SDS011;42890;44.244;22.530;2022-12-07T03:53:43;12.90;;;11.73;;
56997;SDS011;42890;44.244;22.530;2022-12-07T03:56:10;17.10;;;15.50;;
56997;SDS011;42890;44.244;22.530;2022-12-07T03:58:37;21.85;;;19.70;;
56997;SDS011;42890;44.244;22.530;2022-12-07T04:01:04;19.90;;;17.98;;
56997;SDS011;42890;44.244;22.530;2022-12-07T04:03:30;43.17;;;38.75;;
56997;SDS011;42890;44.244;22.530;2022-12-07T04:05:56;37.05;;;33.20;;
56997;SDS011;42890;44.244;22.530;2022-12-07T04:08:23;30.58;;;26.52;;
56997;SDS011;42890;44.244;22.530;2022-12-07T04:10:49;16.38;;;14.88;;
56997;SDS011;42890;44.244;22.530;2022-12-07T04:13:16;32.45;;;28.92;;
56997;SDS011;42890;44.244;22.530;2022-12-07T04:15:42;23.73;;;21.33;;
56997;SDS011;42890;44.244;22.530;2022-12-07T04:18:08;35.00;;;31.27;;
56997;SDS011;42890;44.244;22.530;2022-12-07T04:20:34;74.60;;;65.55;;
56997;SDS011;42890;44.244;22.530;2022-12-07T04:23:00;103.75;;;73.97;;
56997;SDS011;42890;44.244;22.530;2022-12-07T04:25:26;142.13;;;90.63;;
56997;SDS011;42890;44.244;22.530;2022-12-07T04:27:52;73.43;;;58.58;;
56997;SDS011;42890;44.244;22.530;2022-12-07T04:30:19;86.80;;;68.43;;
56997;SDS011;42890;44.244;22.530;2022-12-07T04:32:45;49.13;;;43.78;;
56997;SDS011;42890;44.244;22.530;2022-12-07T04:35:11;63.17;;;51.45;;
56997;SDS011;42890;44.244;22.530;2022-12-07T04:37:37;60.70;;;50.53;;
56997;SDS011;42890;44.244;22.530;2022-12-07T04:40:05;52.72;;;47.08;;
56997;SDS011;42890;44.244;22.530;2022-12-07T04:42:32;53.33;;;47.60;;
56997;SDS011;42890;44.244;22.530;2022-12-07T04:44:58;54.55;;;48.90;;
56997;SDS011;42890;44.244;22.530;2022-12-07T04:47:24;58.35;;;51.10;;
56997;SDS011;42890;44.244;22.530;2022-12-07T04:49:50;55.78;;;49.88;;
56997;SDS011;42890;44.244;22.530;2022-12-07T04:52:16;52.60;;;44.47;;
56997;SDS011;42890;44.244;22.530;2022-12-07T04:54:43;49.67;;;44.28;;
56997;SDS011;42890;44.244;22.530;2022-12-07T04:57:09;49.25;;;43.97;;
56997;SDS011;42890;44.244;22.530;2022-12-07T04:59:35;41.08;;;36.63;;
56997;SDS011;42890;44.244;22.530;2022-12-07T05:02:01;34.83;;;31.05;;
56997;SDS011;42890;44.244;22.530;2022-12-07T05:04:27;28.25;;;25.20;;
56997;SDS011;42890;44.244;22.530;2022-12-07T05:06:53;26.65;;;23.70;;
56997;SDS011;42890;44.244;22.530;2022-12-07T05:09:19;168.60;;;59.25;;
56997;SDS011;42890;44.244;22.530;2022-12-07T05:11:45;35.88;;;27.38;;
56997;SDS011;42890;44.244;22.530;2022-12-07T05:14:13;32.60;;;20.85;;
56997;SDS011;42890;44.244;22.530;2022-12-07T05:16:40;20.60;;;18.40;;
56997;SDS011;42890;44.244;22.530;2022-12-07T05:19:06;20.75;;;18.55;;
56997;SDS011;42890;44.244;22.530;2022-12-07T05:21:33;21.15;;;18.92;;
56997;SDS011;42890;44.244;22.530;2022-12-07T05:23:59;25.77;;;22.90;;
56997;SDS011;42890;44.244;22.530;2022-12-07T05:26:25;99.53;;;53.25;;
56997;SDS011;42890;44.244;22.530;2022-12-07T05:28:52;59.65;;;41.03;;
56997;SDS011;42890;44.244;22.530;2022-12-07T05:31:18;63.40;;;45.63;;
56997;SDS011;42890;44.244;22.530;2022-12-07T05:33:45;55.33;;;44.95;;
56997;SDS011;42890;44.244;22.530;2022-12-07T05:36:11;54.97;;;47.97;;
56997;SDS011;42890;44.244;22.530;2022-12-07T05:38:37;65.30;;;48.90;;
56997;SDS011;42890;44.244;22.530;2022-12-07T05:41:04;59.80;;;51.83;;
56997;SDS011;42890;44.244;22.530;2022-12-07T05:43:30;50.22;;;43.17;;
56997;SDS011;42890;44.244;22.530;2022-12-07T05:45:57;63.75;;;50.60;;
56997;SDS011;42890;44.244;22.530;2022-12-07T05:48:23;69.07;;;57.78;;
56997;SDS011;42890;44.244;22.530;2022-12-07T05:50:50;66.78;;;58.17;;
56997;SDS011;42890;44.244;22.530;2022-12-07T05:53:17;80.05;;;61.97;;
56997;SDS011;42890;44.244;22.530;2022-12-07T05:55:43;75.93;;;61.85;;
56997;SDS011;42890;44.244;22.530;2022-12-07T05:58:09;65.68;;;55.60;;
56997;SDS011;42890;44.244;22.530;2022-12-07T06:00:57;35.95;;;30.58;;
56997;SDS011;42890;44.244;22.530;2022-12-07T06:03:23;31.10;;;27.65;;
56997;SDS011;42890;44.244;22.530;2022-12-07T06:05:49;35.53;;;30.45;;
56997;SDS011;42890;44.244;22.530;2022-12-07T06:08:15;32.92;;;28.33;;
56997;SDS011;42890;44.244;22.530;2022-12-07T06:10:41;30.35;;;25.60;;
56997;SDS011;42890;44.244;22.530;2022-12-07T06:13:08;29.98;;;25.38;;
56997;SDS011;42890;44.244;22.530;2022-12-07T06:15:37;26.90;;;23.83;;
56997;SDS011;42890;44.244;22.530;2022-12-07T06:18:03;31.40;;;24.63;;
56997;SDS011;42890;44.244;22.530;2022-12-07T06:20:29;32.70;;;24.17;;
56997;SDS011;42890;44.244;22.530;2022-12-07T06:22:55;26.83;;;23.17;;
56997;SDS011;42890;44.244;22.530;2022-12-07T06:25:22;29.92;;;24.15;;
56997;SDS011;42890;44.244;22.530;2022-12-07T06:27:48;29.58;;;24.67;;
56997;SDS011;42890;44.244;22.530;2022-12-07T06:30:14;30.58;;;24.85;;
56997;SDS011;42890;44.244;22.530;2022-12-07T06:32:40;21.80;;;19.50;;
56997;SDS011;42890;44.244;22.530;2022-12-07T06:35:06;21.42;;;19.15;;
56997;SDS011;42890;44.244;22.530;2022-12-07T06:37:33;27.70;;;24.63;;
56997;SDS011;42890;44.244;22.530;2022-12-07T06:39:59;32.38;;;26.95;;
56997;SDS011;42890;44.244;22.530;2022-12-07T06:42:25;39.35;;;33.83;;
56997;SDS011;42890;44.244;22.530;2022-12-07T06:44:51;34.20;;;30.38;;
56997;SDS011;42890;44.244;22.530;2022-12-07T06:47:17;31.27;;;27.88;;
56997;SDS011;42890;44.244;22.530;2022-12-07T06:49:43;32.45;;;27.98;;
56997;SDS011;42890;44.244;22.530;2022-12-07T06:52:09;32.85;;;29.33;;
56997;SDS011;42890;44.244;22.530;2022-12-07T06:54:35;31.17;;;25.67;;
56997;SDS011;42890;44.244;22.530;2022-12-07T06:57:01;33.50;;;28.58;;
56997;SDS011;42890;44.244;22.530;2022-12-07T06:59:28;33.22;;;26.95;;
56997;SDS011;42890;44.244;22.530;2022-12-07T07:01:54;164.13;;;93.07;;
56997;SDS011;42890;44.244;22.530;2022-12-07T07:04:20;146.50;;;83.72;;
56997;SDS011;42890;44.244;22.530;2022-12-07T07:06:46;234.20;;;120.22;;
56997;SDS011;42890;44.244;22.530;2022-12-07T07:09:12;77.50;;;57.72;;
56997;SDS011;42890;44.244;22.530;2022-12-07T07:11:38;93.53;;;75.53;;
56997;SDS011;42890;44.244;22.530;2022-12-07T07:14:04;222.75;;;113.85;;
56997;SDS011;42890;44.244;22.530;2022-12-07T07:16:31;194.20;;;105.63;;
56997;SDS011;42890;44.244;22.530;2022-12-07T07:18:57;142.38;;;86.18;;
56997;SDS011;42890;44.244;22.530;2022-12-07T07:21:23;159.23;;;91.10;;
56997;SDS011;42890;44.244;22.530;2022-12-07T07:23:50;564.80;;;294.77;;
56997;SDS011;42890;44.244;22.530;2022-12-07T07:26:17;102.78;;;63.38;;
56997;SDS011;42890;44.244;22.530;2022-12-07T07:28:43;71.63;;;49.25;;
56997;SDS011;42890;44.244;22.530;2022-12-07T07:31:09;36.25;;;30.52;;
56997;SDS011;42890;44.244;22.530;2022-12-07T07:33:35;20.00;;;17.90;;
56997;SDS011;42890;44.244;22.530;2022-12-07T07:36:01;18.15;;;16.30;;
56997;SDS011;42890;44.244;22.530;2022-12-07T07:38:27;18.38;;;16.63;;
56997;SDS011;42890;44.244;22.530;2022-12-07T07:40:53;23.85;;;21.33;;
56997;SDS011;42890;44.244;22.530;2022-12-07T07:43:19;24.60;;;22.30;;
56997;SDS011;42890;44.244;22.530;2022-12-07T07:45:45;17.15;;;15.40;;
56997;SDS011;42890;44.244;22.530;2022-12-07T07:48:12;38.92;;;30.40;;
56997;SDS011;42890;44.244;22.530;2022-12-07T07:50:38;27.38;;;23.50;;
56997;SDS011;42890;44.244;22.530;2022-12-07T07:53:04;25.92;;;23.13;;
56997;SDS011;42890;44.244;22.530;2022-12-07T07:55:30;47.72;;;42.63;;
56997;SDS011;42890;44.244;22.530;2022-12-07T07:57:56;47.15;;;42.13;;
56997;SDS011;42890;44.244;22.530;2022-12-07T08:00:22;37.63;;;33.92;;
56997;SDS011;42890;44.244;22.530;2022-12-07T08:02:48;51.05;;;45.50;;
56997;SDS011;42890;44.244;22.530;2022-12-07T08:05:15;45.63;;;41.03;;
56997;SDS011;42890;44.244;22.530;2022-12-07T08:07:41;59.03;;;53.00;;
56997;SDS011;42890;44.244;22.530;2022-12-07T08:10:09;96.90;;;67.88;;
56997;SDS011;42890;44.244;22.530;2022-12-07T08:12:37;135.38;;;88.95;;
56997;SDS011;42890;44.244;22.530;2022-12-07T08:15:23;132.65;;;86.32;;
56997;SDS011;42890;44.244;22.530;2022-12-07T08:17:49;128.50;;;85.10;;
56997;SDS011;42890;44.244;22.530;2022-12-07T08:20:15;137.98;;;86.45;;
56997;SDS011;42890;44.244;22.530;2022-12-07T08:22:42;136.52;;;88.18;;
56997;SDS011;42890;44.244;22.530;2022-12-07T08:25:08;91.60;;;74.72;;
56997;SDS011;42890;44.244;22.530;2022-12-07T08:27:34;81.45;;;68.57;;
56997;SDS011;42890;44.244;22.530;2022-12-07T08:30:00;67.63;;;60.22;;
56997;SDS011;42890;44.244;22.530;2022-12-07T08:32:26;61.58;;;54.55;;
56997;SDS011;42890;44.244;22.530;2022-12-07T08:34:52;55.88;;;50.15;;
56997;SDS011;42890;44.244;22.530;2022-12-07T08:37:18;49.05;;;43.92;;
56997;SDS011;42890;44.244;22.530;2022-12-07T08:39:45;49.92;;;44.83;;
56997;SDS011;42890;44.244;22.530;2022-12-07T08:42:11;55.17;;;49.53;;
56997;SDS011;42890;44.244;22.530;2022-12-07T08:44:37;48.92;;;43.88;;
56997;SDS011;42890;44.244;22.530;2022-12-07T08:47:04;54.10;;;48.60;;
56997;SDS011;42890;44.244;22.530;2022-12-07T08:49:32;53.17;;;47.30;;
56997;SDS011;42890;44.244;22.530;2022-12-07T08:51:59;54.90;;;49.25;;
56997;SDS011;42890;44.244;22.530;2022-12-07T08:54:25;44.75;;;39.97;;
56997;SDS011;42890;44.244;22.530;2022-12-07T08:56:51;84.90;;;63.78;;
56997;SDS011;42890;44.244;22.530;2022-12-07T08:59:19;72.97;;;58.40;;
56997;SDS011;42890;44.244;22.530;2022-12-07T09:01:46;109.80;;;73.57;;
56997;SDS011;42890;44.244;22.530;2022-12-07T09:04:12;92.53;;;66.82;;
56997;SDS011;42890;44.244;22.530;2022-12-07T09:06:38;53.97;;;45.75;;
56997;SDS011;42890;44.244;22.530;2022-12-07T09:09:04;36.70;;;32.85;;
56997;SDS011;42890;44.244;22.530;2022-12-07T09:11:31;35.17;;;31.30;;
56997;SDS011;42890;44.244;22.530;2022-12-07T09:13:58;33.42;;;29.95;;
56997;SDS011;42890;44.244;22.530;2022-12-07T09:16:24;51.13;;;43.97;;
56997;SDS011;42890;44.244;22.530;2022-12-07T09:18:50;48.85;;;41.45;;
56997;SDS011;42890;44.244;22.530;2022-12-07T09:21:16;41.83;;;36.53;;
56997;SDS011;42890;44.244;22.530;2022-12-07T09:23:42;42.15;;;36.08;;
56997;SDS011;42890;44.244;22.530;2022-12-07T09:26:08;48.10;;;42.80;;
56997;SDS011;42890;44.244;22.530;2022-12-07T09:28:35;49.10;;;42.63;;
56997;SDS011;42890;44.244;22.530;2022-12-07T09:31:02;52.78;;;43.90;;
56997;SDS011;42890;44.244;22.530;2022-12-07T09:33:28;56.35;;;47.47;;
56997;SDS011;42890;44.244;22.530;2022-12-07T09:35:54;88.70;;;71.05;;
56997;SDS011;42890;44.244;22.530;2022-12-07T09:38:20;72.35;;;63.17;;
56997;SDS011;42890;44.244;22.530;2022-12-07T09:40:47;64.20;;;57.03;;
56997;SDS011;42890;44.244;22.530;2022-12-07T09:43:23;63.25;;;56.38;;
56997;SDS011;42890;44.244;22.530;2022-12-07T09:45:50;67.68;;;58.72;;
56997;SDS011;42890;44.244;22.530;2022-12-07T09:48:21;81.65;;;68.43;;
56997;SDS011;42890;44.244;22.530;2022-12-07T09:50:48;89.22;;;75.78;;
56997;SDS011;42890;44.244;22.530;2022-12-07T09:53:27;51.08;;;45.75;;
56997;SDS011;42890;44.244;22.530;2022-12-07T09:55:54;43.40;;;38.13;;
56997;SDS011;42890;44.244;22.530;2022-12-07T09:58:22;50.03;;;44.58;;
56997;SDS011;42890;44.244;22.530;2022-12-07T10:00:50;47.85;;;42.75;;
56997;SDS011;42890;44.244;22.530;2022-12-07T10:03:17;44.10;;;39.38;;
56997;SDS011;42890;44.244;22.530;2022-12-07T10:05:44;49.55;;;43.25;;
56997;SDS011;42890;44.244;22.530;2022-12-07T10:08:12;61.05;;;49.17;;
56997;SDS011;42890;44.244;22.530;2022-12-07T10:10:39;83.35;;;58.25;;
56997;SDS011;42890;44.244;22.530;2022-12-07T10:15:46;67.10;;;48.20;;
56997;SDS011;42890;44.244;22.530;2022-12-07T10:20:59;59.08;;;47.75;;
56997;SDS011;42890;44.244;22.530;2022-12-07T10:23:25;65.25;;;47.67;;
56997;SDS011;42890;44.244;22.530;2022-12-07T10:25:51;45.70;;;37.83;;
56997;SDS011;42890;44.244;22.530;2022-12-07T10:28:20;46.00;;;40.95;;
56997;SDS011;42890;44.244;22.530;2022-12-07T10:30:47;49.85;;;40.45;;
56997;SDS011;42890;44.244;22.530;2022-12-07T10:33:27;42.65;;;35.55;;
56997;SDS011;42890;44.244;22.530;2022-12-07T10:35:54;43.22;;;37.00;;
56997;SDS011;42890;44.244;22.530;2022-12-07T10:38:20;41.78;;;35.25;;
56997;SDS011;42890;44.244;22.530;2022-12-07T10:40:46;40.00;;;35.03;;
56997;SDS011;42890;44.244;22.530;2022-12-07T10:46:22;45.67;;;40.28;;
56997;SDS011;42890;44.244;22.530;2022-12-07T10:51:12;47.28;;;42.15;;
56997;SDS011;42890;44.244;22.530;2022-12-07T10:56:23;40.15;;;33.58;;
56997;SDS011;42890;44.244;22.530;2022-12-07T10:59:01;57.17;;;43.75;;
56997;SDS011;42890;44.244;22.530;2022-12-07T11:01:35;62.75;;;46.97;;
56997;SDS011;42890;44.244;22.530;2022-12-07T11:04:08;112.05;;;69.28;;
56997;SDS011;42890;44.244;22.530;2022-12-07T11:09:46;56.58;;;43.67;;
56997;SDS011;42890;44.244;22.530;2022-12-07T11:12:28;39.72;;;32.28;;
56997;SDS011;42890;44.244;22.530;2022-12-07T11:18:01;43.75;;;36.60;;
56997;SDS011;42890;44.244;22.530;2022-12-07T11:26:06;32.55;;;27.65;;
56997;SDS011;42890;44.244;22.530;2022-12-07T11:33:41;32.53;;;27.13;;
56997;SDS011;42890;44.244;22.530;2022-12-07T11:38:55;28.38;;;25.48;;
56997;SDS011;42890;44.244;22.530;2022-12-07T11:41:28;29.08;;;26.15;;
56997;SDS011;42890;44.244;22.530;2022-12-07T11:44:06;26.80;;;24.10;;
56997;SDS011;42890;44.244;22.530;2022-12-07T11:46:42;27.58;;;24.77;;
56997;SDS011;42890;44.244;22.530;2022-12-07T11:49:13;27.80;;;25.10;;
56997;SDS011;42890;44.244;22.530;2022-12-07T11:51:40;27.45;;;24.60;;
56997;SDS011;42890;44.244;22.530;2022-12-07T11:54:17;34.70;;;31.13;;
56997;SDS011;42890;44.244;22.530;2022-12-07T11:56:49;32.72;;;29.38;;
56997;SDS011;42890;44.244;22.530;2022-12-07T12:01:47;30.05;;;27.05;;
56997;SDS011;42890;44.244;22.530;2022-12-07T12:04:30;33.13;;;29.60;;
56997;SDS011;42890;44.244;22.530;2022-12-07T12:06:57;34.35;;;30.75;;
56997;SDS011;42890;44.244;22.530;2022-12-07T12:22:27;31.52;;;28.33;;
56997;SDS011;42890;44.244;22.530;2022-12-07T12:24:54;32.65;;;29.50;;
56997;SDS011;42890;44.244;22.530;2022-12-07T12:27:23;30.65;;;27.23;;
56997;SDS011;42890;44.244;22.530;2022-12-07T12:29:52;33.50;;;30.13;;
56997;SDS011;42890;44.244;22.530;2022-12-07T12:32:20;35.30;;;31.80;;
56997;SDS011;42890;44.244;22.530;2022-12-07T12:45:19;39.75;;;35.75;;
56997;SDS011;42890;44.244;22.530;2022-12-07T12:47:52;39.88;;;35.78;;
56997;SDS011;42890;44.244;22.530;2022-12-07T12:50:20;53.13;;;45.80;;
56997;SDS011;42890;44.244;22.530;2022-12-07T12:52:54;36.22;;;32.47;;
56997;SDS011;42890;44.244;22.530;2022-12-07T12:56:09;32.97;;;29.70;;
56997;SDS011;42890;44.244;22.530;2022-12-07T13:00:46;46.28;;;40.63;;
56997;SDS011;42890;44.244;22.530;2022-12-07T13:03:25;38.20;;;34.22;;
56997;SDS011;42890;44.244;22.530;2022-12-07T13:08:39;32.88;;;28.60;;
56997;SDS011;42890;44.244;22.530;2022-12-07T13:11:16;38.38;;;34.50;;
56997;SDS011;42890;44.244;22.530;2022-12-07T13:13:43;35.28;;;31.45;;
56997;SDS011;42890;44.244;22.530;2022-12-07T13:18:36;33.17;;;29.65;;
56997;SDS011;42890;44.244;22.530;2022-12-07T13:28:46;34.25;;;30.92;;
56997;SDS011;42890;44.244;22.530;2022-12-07T13:31:14;34.22;;;30.73;;
56997;SDS011;42890;44.244;22.530;2022-12-07T13:33:45;31.48;;;28.27;;
56997;SDS011;42890;44.244;22.530;2022-12-07T13:36:14;37.67;;;33.65;;
56997;SDS011;42890;44.244;22.530;2022-12-07T13:38:48;37.13;;;33.33;;
56997;SDS011;42890;44.244;22.530;2022-12-07T13:41:16;35.28;;;31.83;;
56997;SDS011;42890;44.244;22.530;2022-12-07T13:43:43;38.15;;;34.10;;
56997;SDS011;42890;44.244;22.530;2022-12-07T13:46:10;36.70;;;32.80;;
56997;SDS011;42890;44.244;22.530;2022-12-07T13:48:49;34.08;;;30.60;;
56997;SDS011;42890;44.244;22.530;2022-12-07T13:51:25;32.33;;;29.05;;
56997;SDS011;42890;44.244;22.530;2022-12-07T13:53:55;34.55;;;30.98;;
56997;SDS011;42890;44.244;22.530;2022-12-07T13:56:34;36.08;;;32.33;;
56997;SDS011;42890;44.244;22.530;2022-12-07T13:59:02;37.78;;;33.45;;
56997;SDS011;42890;44.244;22.530;2022-12-07T14:01:30;39.17;;;35.22;;
56997;SDS011;42890;44.244;22.530;2022-12-07T14:04:02;39.50;;;35.35;;
56997;SDS011;42890;44.244;22.530;2022-12-07T14:06:48;40.30;;;36.17;;
56997;SDS011;42890;44.244;22.530;2022-12-07T14:09:22;39.90;;;35.65;;
56997;SDS011;42890;44.244;22.530;2022-12-07T14:11:49;42.25;;;37.88;;
56997;SDS011;42890;44.244;22.530;2022-12-07T14:14:17;39.85;;;35.65;;
56997;SDS011;42890;44.244;22.530;2022-12-07T14:16:54;41.67;;;36.72;;
56997;SDS011;42890;44.244;22.530;2022-12-07T14:20:02;43.13;;;37.88;;
56997;SDS011;42890;44.244;22.530;2022-12-07T14:25:02;43.47;;;37.50;;
56997;SDS011;42890;44.244;22.530;2022-12-07T14:27:37;43.25;;;38.70;;
56997;SDS011;42890;44.244;22.530;2022-12-07T14:30:04;43.38;;;37.92;;
56997;SDS011;42890;44.244;22.530;2022-12-07T14:32:30;41.13;;;36.83;;
56997;SDS011;42890;44.244;22.530;2022-12-07T14:35:07;48.13;;;35.53;;
56997;SDS011;42890;44.244;22.530;2022-12-07T14:37:35;41.13;;;36.80;;
56997;SDS011;42890;44.244;22.530;2022-12-07T14:40:02;40.63;;;36.40;;
56997;SDS011;42890;44.244;22.530;2022-12-07T14:42:29;38.00;;;33.67;;
56997;SDS011;42890;44.244;22.530;2022-12-07T14:44:55;41.78;;;35.55;;
56997;SDS011;42890;44.244;22.530;2022-12-07T14:47:22;39.35;;;35.08;;
56997;SDS011;42890;44.244;22.530;2022-12-07T14:49:48;41.13;;;34.25;;
56997;SDS011;42890;44.244;22.530;2022-12-07T14:52:16;41.78;;;37.25;;
56997;SDS011;42890;44.244;22.530;2022-12-07T14:54:43;44.97;;;36.25;;
56997;SDS011;42890;44.244;22.530;2022-12-07T14:57:09;41.42;;;36.33;;
56997;SDS011;42890;44.244;22.530;2022-12-07T14:59:36;41.08;;;36.45;;
56997;SDS011;42890;44.244;22.530;2022-12-07T15:02:02;40.97;;;34.38;;
56997;SDS011;42890;44.244;22.530;2022-12-07T15:04:28;44.58;;;35.15;;
56997;SDS011;42890;44.244;22.530;2022-12-07T15:06:58;44.33;;;33.72;;
56997;SDS011;42890;44.244;22.530;2022-12-07T15:09:24;47.92;;;34.58;;
56997;SDS011;42890;44.244;22.530;2022-12-07T15:11:50;45.03;;;37.25;;
56997;SDS011;42890;44.244;22.530;2022-12-07T15:14:17;40.80;;;33.20;;
56997;SDS011;42890;44.244;22.530;2022-12-07T15:16:43;42.00;;;33.53;;
56997;SDS011;42890;44.244;22.530;2022-12-07T15:19:19;38.80;;;32.53;;
56997;SDS011;42890;44.244;22.530;2022-12-07T15:21:50;49.40;;;35.10;;
56997;SDS011;42890;44.244;22.530;2022-12-07T15:24:17;45.83;;;38.13;;
56997;SDS011;42890;44.244;22.530;2022-12-07T15:26:43;53.15;;;42.13;;
56997;SDS011;42890;44.244;22.530;2022-12-07T15:29:09;331.65;;;126.05;;
56997;SDS011;42890;44.244;22.530;2022-12-07T15:31:36;57.75;;;42.80;;
56997;SDS011;42890;44.244;22.530;2022-12-07T15:34:03;45.95;;;35.08;;
56997;SDS011;42890;44.244;22.530;2022-12-07T15:36:30;188.05;;;71.90;;
56997;SDS011;42890;44.244;22.530;2022-12-07T15:38:56;65.57;;;44.80;;
56997;SDS011;42890;44.244;22.530;2022-12-07T15:41:23;97.95;;;49.83;;
56997;SDS011;42890;44.244;22.530;2022-12-07T15:43:49;82.40;;;49.80;;
56997;SDS011;42890;44.244;22.530;2022-12-07T15:46:35;184.52;;;75.30;;
56997;SDS011;42890;44.244;22.530;2022-12-07T15:49:02;480.27;;;204.93;;
56997;SDS011;42890;44.244;22.530;2022-12-07T15:51:29;483.25;;;208.38;;
56997;SDS011;42890;44.244;22.530;2022-12-07T15:53:56;430.00;;;192.90;;
56997;SDS011;42890;44.244;22.530;2022-12-07T15:56:23;723.28;;;325.67;;
56997;SDS011;42890;44.244;22.530;2022-12-07T15:58:49;453.05;;;196.60;;
56997;SDS011;42890;44.244;22.530;2022-12-07T16:01:16;363.48;;;150.82;;
56997;SDS011;42890;44.244;22.530;2022-12-07T16:03:43;903.75;;;417.38;;